createdAt,value
2018-11-02T00:01:05.559Z,96714.33
2018-11-02T00:03:33.906Z,96722.08
2018-11-02T00:06:02.277Z,96736.62
2018-11-02T00:08:31.004Z,96734.69
2018-11-02T00:10:59.648Z,96735.50
2018-11-02T00:13:28.043Z,96741.44
2018-11-02T00:15:56.384Z,96743.17
2018-11-02T00:18:24.922Z,96737.53
2018-11-02T00:20:53.259Z,96734.28
2018-11-02T00:23:21.596Z,96738.94
2018-11-02T00:25:50.320Z,96741.01
2018-11-02T00:28:18.651Z,96742.76
2018-11-02T00:30:46.982Z,96749.22
2018-11-02T00:33:15.347Z,96755.05
2018-11-02T00:35:43.737Z,96756.02
2018-11-02T00:38:12.075Z,96760.25
2018-11-02T00:40:40.388Z,96767.08
2018-11-02T00:43:08.712Z,96770.27
2018-11-02T00:45:37.051Z,96773.41
2018-11-02T00:48:05.496Z,96779.38
2018-11-02T00:50:33.842Z,96782.97
2018-11-02T00:53:02.540Z,96796.95
2018-11-02T00:55:30.840Z,96795.44
2018-11-02T00:57:59.188Z,96803.22
2018-11-02T01:00:27.531Z,96805.08
2018-11-02T01:02:55.876Z,96814.16
2018-11-02T01:05:24.228Z,96809.44
2018-11-02T01:07:52.600Z,96815.66
2018-11-02T01:10:20.944Z,96818.16
2018-11-02T01:12:49.305Z,96817.12
2018-11-02T01:15:17.635Z,96821.23
2018-11-02T01:17:45.995Z,96823.33
2018-11-02T01:20:14.395Z,96825.75
2018-11-02T01:22:42.781Z,96832.69
2018-11-02T01:25:11.026Z,96829.83
2018-11-02T01:27:39.351Z,96830.87
2018-11-02T01:30:07.663Z,96838.03
2018-11-02T01:32:35.975Z,96827.52
2018-11-02T01:35:04.267Z,96835.69
2018-11-02T01:37:32.597Z,96836.81
2018-11-02T01:40:00.882Z,96834.13
2018-11-02T01:42:29.207Z,96841.50
2018-11-02T01:44:57.687Z,96847.30
2018-11-02T01:47:26.018Z,96853.80
2018-11-02T01:49:54.307Z,96855.00
2018-11-02T01:52:22.614Z,96862.18
2018-11-02T01:54:50.903Z,96857.59
2018-11-02T01:57:19.231Z,96870.06
2018-11-02T01:59:47.511Z,96864.27
2018-11-02T02:02:15.819Z,96857.55
2018-11-02T02:04:44.132Z,96867.19
2018-11-02T02:07:12.441Z,96867.89
2018-11-02T02:09:40.719Z,96877.80
2018-11-02T02:12:09.035Z,96874.58
2018-11-02T02:14:37.335Z,96877.33
2018-11-02T02:17:05.988Z,96875.05
2018-11-02T02:19:34.284Z,96881.58
2018-11-02T02:22:03.044Z,96876.17
2018-11-02T02:24:31.344Z,96871.33
2018-11-02T02:26:59.656Z,96864.56
2018-11-02T02:29:27.988Z,96864.59
2018-11-02T02:31:56.301Z,96867.84
2018-11-02T02:34:24.597Z,96870.56
2018-11-02T02:36:52.885Z,96870.56
2018-11-02T02:39:21.196Z,96870.28
2018-11-02T02:41:49.491Z,96875.63
2018-11-02T02:44:17.787Z,96873.77
2018-11-02T02:46:46.074Z,96871.02
2018-11-02T02:49:14.395Z,96872.79
2018-11-02T02:51:42.676Z,96873.50
2018-11-02T02:54:10.983Z,96877.17
2018-11-02T02:56:39.268Z,96877.33
2018-11-02T02:59:07.559Z,96873.34
2018-11-02T03:01:35.840Z,96872.52
2018-11-02T03:04:04.414Z,96881.27
2018-11-02T03:06:32.704Z,96885.19
2018-11-02T03:09:01.131Z,96893.73
2018-11-02T03:11:29.427Z,96893.98
2018-11-02T03:13:57.763Z,96895.06
2018-11-02T03:16:26.037Z,96895.59
2018-11-02T03:18:54.369Z,96904.13
2018-11-02T03:21:22.675Z,96899.10
2018-11-02T03:23:50.983Z,96903.98
2018-11-02T03:26:20.206Z,96910.41
2018-11-02T03:28:48.543Z,96907.53
2018-11-02T03:31:16.856Z,96919.06
2018-11-02T03:33:45.944Z,96924.41
2018-11-02T03:36:14.241Z,96926.79
2018-11-02T03:38:42.548Z,96942.73
2018-11-02T03:41:10.866Z,96946.45
2018-11-02T03:43:39.159Z,96947.01
2018-11-02T03:46:07.459Z,96954.86
2018-11-02T03:48:35.803Z,96959.36
2018-11-02T03:51:04.112Z,96960.48
2018-11-02T03:53:32.450Z,96971.06
2018-11-02T03:56:00.760Z,96964.12
2018-11-02T03:58:29.066Z,96973.19
2018-11-02T04:00:57.359Z,96986.84
2018-11-02T04:03:25.676Z,96983.41
2018-11-02T04:05:53.966Z,96996.68
2018-11-02T04:08:22.293Z,96997.72
2018-11-02T04:10:50.598Z,96999.55
2018-11-02T04:13:18.891Z,96991.70
2018-11-02T04:15:47.358Z,96994.95
2018-11-02T04:18:15.668Z,97007.17
2018-11-02T04:20:43.951Z,97006.30
2018-11-02T04:23:12.267Z,97013.34
2018-11-02T04:25:40.607Z,97016.66
2018-11-02T04:28:08.975Z,97013.59
2018-11-02T04:30:37.220Z,97023.56
2018-11-02T04:33:06.055Z,97033.54
2018-11-02T04:35:34.331Z,97028.45
2018-11-02T04:38:02.640Z,97033.11
2018-11-02T04:40:30.919Z,97034.25
2018-11-02T04:42:59.212Z,97041.02
2018-11-02T04:45:32.607Z,97055.20
2018-11-02T04:48:01.572Z,97058.39
2018-11-02T04:50:29.875Z,97055.12
2018-11-02T04:52:58.175Z,97057.05
2018-11-02T04:55:27.444Z,97056.34
2018-11-02T04:57:55.737Z,97064.88
2018-11-02T05:00:24.056Z,97063.08
2018-11-02T05:02:52.344Z,97064.98
2018-11-02T05:05:20.658Z,97071.62
2018-11-02T05:07:49.214Z,97068.48
2018-11-02T05:10:17.532Z,97081.41
2018-11-02T05:12:46.011Z,97085.61
2018-11-02T05:15:14.328Z,97089.61
2018-11-02T05:17:43.548Z,97090.05
2018-11-02T05:20:11.930Z,97101.09
2018-11-02T05:22:40.208Z,97099.30
2018-11-02T05:25:09.524Z,97097.44
2018-11-02T05:27:38.491Z,97105.94
2018-11-02T05:30:07.910Z,97101.45
2018-11-02T05:32:36.241Z,97104.23
2018-11-02T05:35:04.614Z,97109.55
2018-11-02T05:37:33.132Z,97115.63
2018-11-02T05:40:01.442Z,97114.92
2018-11-02T05:42:29.736Z,97114.47
2018-11-02T05:44:58.057Z,97105.31
2018-11-02T05:47:26.451Z,97110.59
2018-11-02T05:49:54.655Z,97116.75
2018-11-02T05:52:22.953Z,97121.75
2018-11-02T05:54:51.324Z,97135.28
2018-11-02T05:57:19.603Z,97145.76
2018-11-02T05:59:47.927Z,97150.53
2018-11-02T06:02:16.231Z,97152.48
2018-11-02T06:04:44.544Z,97155.33
2018-11-02T06:07:12.851Z,97156.24
2018-11-02T06:09:41.276Z,97162.59
2018-11-02T06:12:09.559Z,97157.63
2018-11-02T06:14:37.866Z,97166.33
2018-11-02T06:17:06.461Z,97167.70
2018-11-02T06:19:34.771Z,97172.13
2018-11-02T06:22:03.070Z,97178.63
2018-11-02T06:24:31.387Z,97179.79
2018-11-02T06:27:00.009Z,97182.02
2018-11-02T06:29:28.320Z,97193.86
2018-11-02T06:31:56.616Z,97193.38
2018-11-02T06:34:24.927Z,97201.36
2018-11-02T06:36:53.232Z,97198.39
2018-11-02T06:39:21.535Z,97196.44
2018-11-02T06:41:49.815Z,97204.79
2018-11-02T06:44:18.124Z,97203.23
2018-11-02T06:46:46.420Z,97211.41
2018-11-02T06:49:14.804Z,97213.71
2018-11-02T06:51:43.103Z,97217.97
2018-11-02T06:54:11.699Z,97205.67
2018-11-02T06:56:40.755Z,97209.73
2018-11-02T06:59:09.164Z,97222.72
2018-11-02T07:01:37.409Z,97227.03
2018-11-02T07:04:05.725Z,97227.95
2018-11-02T07:06:34.004Z,97232.13
2018-11-02T07:09:02.303Z,97234.50
2018-11-02T07:11:30.583Z,97240.20
2018-11-02T07:13:58.879Z,97240.00
2018-11-02T07:16:27.171Z,97239.71
2018-11-02T07:18:55.457Z,97235.72
2018-11-02T07:21:23.745Z,97238.38
2018-11-02T07:23:52.047Z,97248.75
2018-11-02T07:26:20.352Z,97254.20
2018-11-02T07:28:48.731Z,97259.91
2018-11-02T07:31:17.056Z,97255.20
2018-11-02T07:33:45.337Z,97257.46
2018-11-02T07:36:13.640Z,97269.61
2018-11-02T07:38:41.914Z,97266.18
2018-11-02T07:41:10.232Z,97271.79
2018-11-02T07:43:38.520Z,97273.17
2018-11-02T07:46:06.872Z,97275.57
2018-11-02T07:48:35.174Z,97281.42
2018-11-02T07:51:03.471Z,97283.98
2018-11-02T07:53:31.757Z,97275.97
2018-11-02T07:56:00.072Z,97280.34
2018-11-02T07:58:28.363Z,97278.33
2018-11-02T08:00:56.663Z,97289.47
2018-11-02T08:03:24.967Z,97288.64
2018-11-02T08:05:53.958Z,97297.00
2018-11-02T08:08:22.616Z,97295.95
2018-11-02T08:10:50.920Z,97308.95
2018-11-02T08:13:19.935Z,97317.72
2018-11-02T08:15:48.256Z,97324.94
2018-11-02T08:18:16.535Z,97321.30
2018-11-02T08:20:44.799Z,97321.23
2018-11-02T08:23:13.099Z,97325.33
2018-11-02T08:25:41.396Z,97330.53
2018-11-02T08:28:09.720Z,97327.52
2018-11-02T08:30:37.988Z,97331.60
2018-11-02T08:33:06.454Z,97332.24
2018-11-02T08:35:34.731Z,97335.32
2018-11-02T08:38:03.031Z,97339.11
2018-11-02T08:40:31.299Z,97335.45
2018-11-02T08:42:59.596Z,97339.41
2018-11-02T08:45:27.863Z,97341.24
2018-11-02T08:47:56.160Z,97344.84
2018-11-02T08:50:24.427Z,97341.57
2018-11-02T08:52:52.704Z,97352.48
2018-11-02T08:55:21.525Z,97348.17
2018-11-02T08:57:49.915Z,97347.48
2018-11-02T09:00:18.220Z,97350.56
2018-11-02T09:02:46.426Z,97364.61
2018-11-02T09:05:14.846Z,97356.25
2018-11-02T09:07:43.070Z,97358.75
2018-11-02T09:10:12.243Z,97363.17
2018-11-02T09:12:40.603Z,97364.49
2018-11-02T09:15:08.921Z,97370.09
2018-11-02T09:17:37.199Z,97379.09
2018-11-02T09:20:05.727Z,97380.42
2018-11-02T09:22:34.015Z,97381.13
2018-11-02T09:25:02.508Z,97389.26
2018-11-02T09:27:30.856Z,97389.42
2018-11-02T09:29:59.135Z,97385.88
2018-11-02T09:32:27.438Z,97395.70
2018-11-02T09:34:55.723Z,97399.95
2018-11-02T09:37:24.015Z,97398.36
2018-11-02T09:39:52.803Z,97408.77
2018-11-02T09:42:21.103Z,97409.27
2018-11-02T09:44:49.831Z,97406.72
2018-11-02T09:47:18.158Z,97408.75
2018-11-02T09:49:46.481Z,97412.41
2018-11-02T09:52:15.246Z,97415.59
2018-11-02T09:54:43.558Z,97420.08
2018-11-02T09:57:11.851Z,97415.98
2018-11-02T09:59:40.364Z,97419.03
2018-11-02T10:02:08.748Z,97420.80
2018-11-02T10:04:36.975Z,97418.38
2018-11-02T10:07:05.335Z,97425.11
2018-11-02T10:09:33.664Z,97424.91
2018-11-02T10:12:01.971Z,97422.23
2018-11-02T10:14:30.290Z,97424.39
2018-11-02T10:16:58.603Z,97420.16
2018-11-02T10:19:26.927Z,97422.25
2018-11-02T10:21:55.267Z,97415.38
2018-11-02T10:24:23.580Z,97431.41
2018-11-02T10:26:52.310Z,97432.19
2018-11-02T10:29:20.627Z,97420.01
2018-11-02T10:31:48.982Z,97411.73
2018-11-02T10:34:17.327Z,97408.61
2018-11-02T10:36:46.056Z,97412.75
2018-11-02T10:39:14.887Z,97423.27
2018-11-02T10:41:51.976Z,97423.64
2018-11-02T10:44:24.501Z,97431.32
2018-11-02T10:46:52.831Z,97432.89
2018-11-02T10:49:21.793Z,97445.38
2018-11-02T10:51:50.460Z,97445.69
2018-11-02T10:54:18.809Z,97447.50
2018-11-02T10:56:47.297Z,97444.22
2018-11-02T10:59:15.504Z,97436.86
2018-11-02T11:01:49.067Z,97434.05
2018-11-02T11:04:17.427Z,97436.19
2018-11-02T11:06:46.148Z,97433.16
2018-11-02T11:09:14.523Z,97434.03
2018-11-02T11:11:43.099Z,97436.77
2018-11-02T11:14:11.515Z,97436.55
2018-11-02T11:16:39.883Z,97445.92
2018-11-02T11:19:09.379Z,97443.14
2018-11-02T11:21:41.539Z,97450.53
2018-11-02T11:24:09.929Z,97440.63
2018-11-02T11:26:38.835Z,97446.55
2018-11-02T11:29:07.331Z,97457.31
2018-11-02T11:31:36.115Z,97465.66
2018-11-02T11:34:04.981Z,97464.97
2018-11-02T11:36:33.351Z,97458.33
2018-11-02T11:39:01.671Z,97463.55
2018-11-02T11:41:30.035Z,97459.70
2018-11-02T11:43:58.406Z,97458.11
2018-11-02T11:46:26.779Z,97462.75
2018-11-02T11:48:55.183Z,97454.33
2018-11-02T11:51:23.460Z,97455.55
2018-11-02T11:53:51.816Z,97453.31
2018-11-02T11:56:20.183Z,97457.77
2018-11-02T11:58:48.536Z,97457.66
2018-11-02T12:01:16.902Z,97462.37
2018-11-02T12:03:45.267Z,97459.26
2018-11-02T12:06:13.675Z,97457.10
2018-11-02T12:08:42.035Z,97462.67
2018-11-02T12:11:10.386Z,97461.61
2018-11-02T12:13:38.815Z,97464.45
2018-11-02T12:16:07.294Z,97468.98
2018-11-02T12:18:35.537Z,97476.13
2018-11-02T12:21:03.867Z,97481.41
2018-11-02T12:23:32.426Z,97479.78
2018-11-02T12:26:00.748Z,97483.30
2018-11-02T12:28:29.146Z,97487.00
2018-11-02T12:30:57.488Z,97491.43
2018-11-02T12:33:25.851Z,97490.28
2018-11-02T12:35:54.548Z,97483.22
2018-11-02T12:38:22.887Z,97477.89
2018-11-02T12:40:51.196Z,97476.70
2018-11-02T12:43:19.630Z,97479.48
2018-11-02T12:45:47.907Z,97478.99
2018-11-02T12:48:16.320Z,97490.43
2018-11-02T12:50:44.644Z,97496.64
2018-11-02T12:53:13.025Z,97497.42
2018-11-02T12:55:41.385Z,97498.53
2018-11-02T12:58:09.759Z,97498.37
2018-11-02T13:00:38.812Z,97501.60
2018-11-02T13:03:07.159Z,97496.55
2018-11-02T13:05:35.495Z,97496.08
2018-11-02T13:08:03.832Z,97498.97
2018-11-02T13:10:32.155Z,97503.58
2018-11-02T13:13:00.499Z,97505.02
2018-11-02T13:15:28.842Z,97510.79
2018-11-02T13:17:57.237Z,97517.48
2018-11-02T13:20:25.523Z,97515.05
2018-11-02T13:22:53.875Z,97522.11
2018-11-02T13:25:22.597Z,97531.64
2018-11-02T13:27:51.589Z,97532.90
2018-11-02T13:30:20.037Z,97538.80
2018-11-02T13:32:48.291Z,97543.77
2018-11-02T13:35:17.846Z,97556.38
2018-11-02T13:37:46.561Z,97560.00
2018-11-02T13:40:16.000Z,97565.27
2018-11-02T13:42:44.448Z,97566.55
2018-11-02T13:45:13.961Z,97563.36
2018-11-02T13:47:42.883Z,97570.34
2018-11-02T13:50:11.622Z,97582.89
2018-11-02T13:52:40.255Z,97586.55
2018-11-02T13:55:09.340Z,97590.09
2018-11-02T13:57:37.963Z,97588.62
2018-11-02T14:00:08.406Z,97590.34
2018-11-02T14:02:36.761Z,97597.52
2018-11-02T14:05:06.344Z,97593.13
2018-11-02T14:07:34.707Z,97595.84
2018-11-02T14:10:03.051Z,97605.11
2018-11-02T14:12:31.404Z,97610.20
2018-11-02T14:14:59.751Z,97618.11
2018-11-02T14:17:28.124Z,97620.43
2018-11-02T14:19:56.461Z,97620.47
2018-11-02T14:22:24.779Z,97622.34
2018-11-02T14:24:53.140Z,97615.50
2018-11-02T14:27:21.471Z,97615.73
2018-11-02T14:29:49.824Z,97625.09
2018-11-02T14:32:18.155Z,97624.50
2018-11-02T14:34:46.524Z,97631.13
2018-11-02T14:37:14.883Z,97625.73
2018-11-02T14:39:43.215Z,97632.95
2018-11-02T14:42:11.654Z,97629.40
2018-11-02T14:44:40.035Z,97636.53
2018-11-02T14:47:08.415Z,97640.61
2018-11-02T14:49:36.778Z,97643.44
2018-11-02T14:52:05.326Z,97648.92
2018-11-02T14:54:33.693Z,97646.86
2018-11-02T14:57:02.391Z,97648.41
2018-11-02T14:59:30.786Z,97649.53
2018-11-02T15:01:59.126Z,97643.45
2018-11-02T15:04:27.570Z,97637.05
2018-11-02T15:06:55.907Z,97636.92
2018-11-02T15:09:24.484Z,97640.09
2018-11-02T15:11:52.815Z,97642.12
2018-11-02T15:14:21.167Z,97641.82
2018-11-02T15:16:49.496Z,97647.08
2018-11-02T15:19:17.860Z,97655.03
2018-11-02T15:21:46.192Z,97655.91
2018-11-02T15:24:14.543Z,97661.47
2018-11-02T15:26:42.885Z,97653.81
2018-11-02T15:29:11.259Z,97655.34
2018-11-02T15:31:39.579Z,97661.41
2018-11-02T15:34:08.329Z,97663.47
2018-11-02T15:36:36.781Z,97662.80
2018-11-02T15:39:08.575Z,97673.08
2018-11-02T15:41:36.971Z,97675.38
2018-11-02T15:44:05.600Z,97687.81
2018-11-02T15:46:33.903Z,97687.45
2018-11-02T15:49:02.259Z,97692.64
2018-11-02T15:51:30.583Z,97701.31
2018-11-02T15:53:58.984Z,97709.28
2018-11-02T15:56:27.339Z,97709.42
2018-11-02T15:58:55.802Z,97714.85
2018-11-02T16:01:24.271Z,97716.49
2018-11-02T16:03:52.623Z,97717.66
2018-11-02T16:06:20.967Z,97731.01
2018-11-02T16:08:49.327Z,97730.34
2018-11-02T16:11:17.685Z,97730.97
2018-11-02T16:13:46.039Z,97733.20
2018-11-02T16:16:14.551Z,97744.05
2018-11-02T16:18:42.917Z,97750.24
2018-11-02T16:21:11.252Z,97752.37
2018-11-02T16:23:40.019Z,97759.05
2018-11-02T16:26:08.690Z,97761.67
2018-11-02T16:28:37.462Z,97762.02
2018-11-02T16:31:05.815Z,97766.33
2018-11-02T16:33:34.202Z,97775.37
2018-11-02T16:36:02.560Z,97781.11
2018-11-02T16:38:31.359Z,97784.20
2018-11-02T16:40:59.721Z,97792.08
2018-11-02T16:43:28.124Z,97799.81
2018-11-02T16:45:56.400Z,97802.12
2018-11-02T16:48:24.741Z,97808.11
2018-11-02T16:50:53.096Z,97809.59
2018-11-02T16:53:21.447Z,97812.70
2018-11-02T16:55:49.811Z,97816.77
2018-11-02T16:58:18.215Z,97819.61
2018-11-02T17:00:46.580Z,97822.41
2018-11-02T17:03:14.899Z,97829.58
2018-11-02T17:05:43.336Z,97840.25
2018-11-02T17:08:11.651Z,97842.25
2018-11-02T17:10:40.025Z,97844.20
2018-11-02T17:13:08.384Z,97848.17
2018-11-02T17:15:36.751Z,97849.64
2018-11-02T17:18:05.787Z,97849.46
2018-11-02T17:20:34.099Z,97849.35
2018-11-02T17:23:02.464Z,97852.11
2018-11-02T17:25:30.842Z,97856.62
2018-11-02T17:27:59.199Z,97860.13
2018-11-02T17:30:27.679Z,97854.66
2018-11-02T17:32:56.001Z,97858.08
2018-11-02T17:35:24.371Z,97862.92
2018-11-02T17:37:52.715Z,97867.73
2018-11-02T17:40:21.304Z,97874.54
2018-11-02T17:42:49.652Z,97878.00
2018-11-02T17:45:18.041Z,97878.30
2018-11-02T17:47:46.489Z,97879.25
2018-11-02T17:50:15.478Z,97880.03
2018-11-02T17:52:44.004Z,97885.55
2018-11-02T17:55:12.360Z,97893.42
2018-11-02T17:57:40.781Z,97889.79
2018-11-02T18:00:10.607Z,97894.77
2018-11-02T18:02:39.159Z,97901.48
2018-11-02T18:05:08.143Z,97899.41
2018-11-02T18:07:36.796Z,97905.75
2018-11-02T18:10:07.089Z,97912.66
2018-11-02T18:12:36.034Z,97918.07
2018-11-02T18:15:04.676Z,97903.95
2018-11-02T18:17:33.201Z,97912.66
2018-11-02T18:20:01.995Z,97911.64
2018-11-02T18:22:30.913Z,97911.13
2018-11-02T18:24:59.320Z,97915.95
2018-11-02T18:27:27.903Z,97919.13
2018-11-02T18:29:56.460Z,97913.28
2018-11-02T18:32:24.985Z,97917.80
2018-11-02T18:34:53.432Z,97916.89
2018-11-02T18:37:23.271Z,97911.64
2018-11-02T18:39:51.760Z,97923.86
2018-11-02T18:42:20.235Z,97930.53
2018-11-02T18:44:48.959Z,97928.48
2018-11-02T18:47:17.356Z,97928.06
2018-11-02T18:49:45.840Z,97933.81
2018-11-02T18:52:14.332Z,97933.81
2018-11-02T18:54:42.683Z,97938.62
2018-11-02T18:57:11.583Z,97941.30
2018-11-02T18:59:39.947Z,97939.65
2018-11-02T19:02:08.327Z,97941.50
2018-11-02T19:04:36.700Z,97947.02
2018-11-02T19:07:05.239Z,97951.44
2018-11-02T19:09:33.583Z,97952.27
2018-11-02T19:12:02.143Z,97952.98
2018-11-02T19:14:30.540Z,97960.55
2018-11-02T19:16:58.903Z,97958.11
2018-11-02T19:19:27.294Z,97951.45
2018-11-02T19:21:55.682Z,97954.42
2018-11-02T19:24:24.035Z,97962.31
2018-11-02T19:26:52.751Z,97959.33
2018-11-02T19:29:21.023Z,97955.95
2018-11-02T19:31:49.400Z,97963.44
2018-11-02T19:34:17.832Z,97959.02
2018-11-02T19:36:46.074Z,97955.95
2018-11-02T19:39:14.412Z,97961.08
2018-11-02T19:41:42.776Z,97961.47
2018-11-02T19:44:11.175Z,97969.08
2018-11-02T19:46:39.538Z,97966.80
2018-11-02T19:49:07.993Z,97970.00
2018-11-02T19:51:36.307Z,97968.14
2018-11-02T19:54:04.731Z,97975.02
2018-11-02T19:56:33.123Z,97992.33
2018-11-02T19:59:01.486Z,97997.64
2018-11-02T20:01:30.024Z,97992.73
2018-11-02T20:03:58.396Z,97997.23
2018-11-02T20:06:26.787Z,97996.02
2018-11-02T20:08:55.153Z,97990.06
2018-11-02T20:11:23.516Z,97995.78
2018-11-02T20:13:51.905Z,97996.22
2018-11-02T20:16:20.285Z,98003.98
2018-11-02T20:18:48.662Z,98012.49
2018-11-02T20:21:17.566Z,98019.06
2018-11-02T20:23:46.319Z,98020.48
2018-11-02T20:26:14.686Z,98024.41
2018-11-02T20:28:43.024Z,98022.66
2018-11-02T20:31:11.401Z,98023.30
2018-11-02T20:33:40.109Z,98022.16
2018-11-02T20:36:08.468Z,98031.46
2018-11-02T20:38:36.865Z,98037.30
2018-11-02T20:41:05.287Z,98029.81
2018-11-02T20:43:33.651Z,98028.74
2018-11-02T20:46:02.047Z,98020.12
2018-11-02T20:48:30.573Z,98012.37
2018-11-02T20:50:58.893Z,98023.03
2018-11-02T20:53:27.514Z,98028.58
2018-11-02T20:55:55.856Z,98025.70
2018-11-02T20:58:24.344Z,98030.64
2018-11-02T21:00:52.679Z,98030.70
2018-11-02T21:03:21.071Z,98026.91
2018-11-02T21:05:49.482Z,98036.10
2018-11-02T21:08:17.870Z,98034.45
2018-11-02T21:10:46.124Z,98041.68
2018-11-02T21:13:14.959Z,98041.68
2018-11-02T21:15:43.291Z,98043.27
2018-11-02T21:18:11.677Z,98042.06
2018-11-02T21:20:40.534Z,98040.92
2018-11-02T21:23:08.831Z,98049.08
2018-11-02T21:25:37.160Z,98052.11
2018-11-02T21:28:06.671Z,98056.62
2018-11-02T21:30:35.055Z,98053.07
2018-11-02T21:33:03.473Z,98054.55
2018-11-02T21:35:31.849Z,98055.09
2018-11-02T21:38:00.347Z,98055.73
2018-11-02T21:40:28.721Z,98056.30
2018-11-02T21:42:57.089Z,98058.23
2018-11-02T21:46:27.996Z,98055.66
2018-11-02T21:48:56.403Z,98056.22
2018-11-02T21:51:24.760Z,98052.55
2018-11-02T21:53:53.153Z,98054.06
2018-11-02T21:56:21.526Z,98051.58
2018-11-02T21:58:49.901Z,98046.40
2018-11-02T22:01:18.255Z,98052.57
2018-11-02T22:03:46.621Z,98056.84
2018-11-02T22:06:14.970Z,98075.08
2018-11-02T22:08:43.343Z,98079.03
2018-11-02T22:11:11.764Z,98077.69
2018-11-02T22:13:57.092Z,98083.45
2018-11-02T22:16:25.447Z,98079.07
2018-11-02T22:18:53.840Z,98074.66
2018-11-02T22:21:22.180Z,98068.69
2018-11-02T22:23:50.557Z,98064.34
2018-11-02T22:26:18.890Z,98066.30
2018-11-02T22:28:47.625Z,98059.12
2018-11-02T22:31:15.969Z,98054.50
2018-11-02T22:33:44.284Z,98056.22
2018-11-02T22:36:12.628Z,98064.83
2018-11-02T22:40:05.362Z,98065.31
2018-11-02T22:42:33.767Z,98074.55
2018-11-02T22:45:02.107Z,98070.73
2018-11-02T22:47:30.454Z,98066.68
2018-11-02T22:49:58.779Z,98063.52
2018-11-02T22:52:27.127Z,98068.91
2018-11-02T22:54:55.476Z,98072.77
2018-11-02T22:57:23.851Z,98077.45
2018-11-02T22:59:52.192Z,98085.36
2018-11-02T23:02:20.551Z,98086.76
2018-11-02T23:04:48.939Z,98087.30
2018-11-02T23:07:17.324Z,98086.76
2018-11-02T23:09:45.672Z,98080.55
2018-11-02T23:12:14.008Z,98089.73
2018-11-02T23:14:42.373Z,98090.22
2018-11-02T23:17:10.792Z,98087.61
2018-11-02T23:19:39.134Z,98085.30
2018-11-02T23:22:07.754Z,98086.12
2018-11-02T23:24:36.119Z,98087.34
2018-11-02T23:27:04.511Z,98089.00
2018-11-02T23:29:33.212Z,98092.01
2018-11-02T23:32:01.540Z,98085.84
2018-11-02T23:34:29.903Z,98085.86
2018-11-02T23:36:58.231Z,98079.16
2018-11-02T23:39:26.579Z,98077.72
2018-11-02T23:41:54.932Z,98081.98
2018-11-02T23:44:23.260Z,98083.38
2018-11-02T23:46:51.587Z,98079.08
2018-11-02T23:49:19.970Z,98071.49
2018-11-02T23:51:48.527Z,98085.05
2018-11-02T23:54:16.879Z,98085.39
2018-11-02T23:56:45.244Z,98097.95
2018-11-02T23:59:13.603Z,98095.64
